sensor_id;sensor_type;location;lat;lon;timestamp;P1;durP1;ratioP1;P2;durP2;ratioP2
80159;SDS011;69486;59.082;37.928;2023-07-31T00:00:45;5.45;;;1.33;;
80159;SDS011;69486;59.082;37.928;2023-07-31T00:03:12;2.83;;;1.27;;
80159;SDS011;69486;59.082;37.928;2023-07-31T00:05:38;8.52;;;1.42;;
80159;SDS011;69486;59.082;37.928;2023-07-31T00:08:04;10.48;;;1.63;;
80159;SDS011;69486;59.082;37.928;2023-07-31T00:10:30;6.50;;;1.90;;
80159;SDS011;69486;59.082;37.928;2023-07-31T00:12:56;10.20;;;2.15;;
80159;SDS011;69486;59.082;37.928;2023-07-31T00:15:21;8.88;;;3.17;;
80159;SDS011;69486;59.082;37.928;2023-07-31T00:17:47;7.65;;;2.80;;
80159;SDS011;69486;59.082;37.928;2023-07-31T00:20:13;10.57;;;3.22;;
80159;SDS011;69486;59.082;37.928;2023-07-31T00:22:39;6.28;;;2.83;;
80159;SDS011;69486;59.082;37.928;2023-07-31T00:25:05;5.68;;;2.50;;
80159;SDS011;69486;59.082;37.928;2023-07-31T00:27:32;7.15;;;1.98;;
80159;SDS011;69486;59.082;37.928;2023-07-31T00:29:58;6.75;;;1.80;;
80159;SDS011;69486;59.082;37.928;2023-07-31T00:32:24;6.55;;;1.85;;
80159;SDS011;69486;59.082;37.928;2023-07-31T00:34:49;5.18;;;1.63;;
80159;SDS011;69486;59.082;37.928;2023-07-31T00:37:16;5.15;;;1.35;;
80159;SDS011;69486;59.082;37.928;2023-07-31T00:39:42;8.23;;;1.58;;
80159;SDS011;69486;59.082;37.928;2023-07-31T00:42:08;4.30;;;1.38;;
80159;SDS011;69486;59.082;37.928;2023-07-31T00:44:34;3.38;;;0.95;;
80159;SDS011;69486;59.082;37.928;2023-07-31T00:47:00;2.53;;;1.23;;
80159;SDS011;69486;59.082;37.928;2023-07-31T00:49:26;5.72;;;1.00;;
80159;SDS011;69486;59.082;37.928;2023-07-31T00:51:52;3.55;;;1.05;;
80159;SDS011;69486;59.082;37.928;2023-07-31T00:54:18;4.15;;;1.00;;
80159;SDS011;69486;59.082;37.928;2023-07-31T00:56:47;8.52;;;1.75;;
80159;SDS011;69486;59.082;37.928;2023-07-31T00:59:14;5.50;;;1.40;;
80159;SDS011;69486;59.082;37.928;2023-07-31T01:01:40;6.20;;;1.20;;
80159;SDS011;69486;59.082;37.928;2023-07-31T01:04:05;7.80;;;1.50;;
80159;SDS011;69486;59.082;37.928;2023-07-31T01:09:02;4.25;;;1.05;;
80159;SDS011;69486;59.082;37.928;2023-07-31T01:11:41;4.22;;;1.20;;
80159;SDS011;69486;59.082;37.928;2023-07-31T01:14:11;6.00;;;1.55;;
80159;SDS011;69486;59.082;37.928;2023-07-31T01:16:37;5.50;;;1.50;;
80159;SDS011;69486;59.082;37.928;2023-07-31T01:19:02;5.40;;;1.30;;
80159;SDS011;69486;59.082;37.928;2023-07-31T01:24:38;3.08;;;1.45;;
80159;SDS011;69486;59.082;37.928;2023-07-31T01:26:44;5.43;;;1.67;;
80159;SDS011;69486;59.082;37.928;2023-07-31T01:29:16;3.63;;;1.30;;
80159;SDS011;69486;59.082;37.928;2023-07-31T01:31:43;5.30;;;1.70;;
80159;SDS011;69486;59.082;37.928;2023-07-31T01:34:11;2.92;;;1.30;;
80159;SDS011;69486;59.082;37.928;2023-07-31T01:36:38;4.93;;;1.65;;
80159;SDS011;69486;59.082;37.928;2023-07-31T01:39:04;3.63;;;1.42;;
80159;SDS011;69486;59.082;37.928;2023-07-31T01:41:30;6.25;;;1.33;;
80159;SDS011;69486;59.082;37.928;2023-07-31T01:43:56;6.22;;;1.60;;
80159;SDS011;69486;59.082;37.928;2023-07-31T01:46:22;7.40;;;2.05;;
80159;SDS011;69486;59.082;37.928;2023-07-31T01:48:48;9.73;;;2.20;;
80159;SDS011;69486;59.082;37.928;2023-07-31T01:51:14;5.68;;;1.77;;
80159;SDS011;69486;59.082;37.928;2023-07-31T01:53:39;8.55;;;2.10;;
80159;SDS011;69486;59.082;37.928;2023-07-31T01:56:05;8.32;;;2.20;;
80159;SDS011;69486;59.082;37.928;2023-07-31T01:58:31;5.03;;;1.90;;
80159;SDS011;69486;59.082;37.928;2023-07-31T02:00:57;5.43;;;2.05;;
80159;SDS011;69486;59.082;37.928;2023-07-31T02:03:23;6.95;;;2.00;;
80159;SDS011;69486;59.082;37.928;2023-07-31T02:05:49;4.93;;;1.92;;
80159;SDS011;69486;59.082;37.928;2023-07-31T02:08:15;11.52;;;2.40;;
80159;SDS011;69486;59.082;37.928;2023-07-31T02:10:41;15.32;;;3.00;;
80159;SDS011;69486;59.082;37.928;2023-07-31T02:13:07;16.35;;;4.38;;
80159;SDS011;69486;59.082;37.928;2023-07-31T02:15:34;7.88;;;2.38;;
80159;SDS011;69486;59.082;37.928;2023-07-31T02:17:59;9.75;;;2.40;;
80159;SDS011;69486;59.082;37.928;2023-07-31T02:20:25;9.52;;;1.70;;
80159;SDS011;69486;59.082;37.928;2023-07-31T02:22:51;8.70;;;1.75;;
80159;SDS011;69486;59.082;37.928;2023-07-31T02:25:17;6.65;;;1.40;;
80159;SDS011;69486;59.082;37.928;2023-07-31T02:27:43;7.13;;;1.30;;
80159;SDS011;69486;59.082;37.928;2023-07-31T02:30:10;2.50;;;1.30;;
80159;SDS011;69486;59.082;37.928;2023-07-31T02:32:36;5.22;;;1.45;;
80159;SDS011;69486;59.082;37.928;2023-07-31T02:35:03;4.53;;;1.33;;
80159;SDS011;69486;59.082;37.928;2023-07-31T02:37:29;6.03;;;1.70;;
80159;SDS011;69486;59.082;37.928;2023-07-31T02:39:55;4.07;;;1.38;;
80159;SDS011;69486;59.082;37.928;2023-07-31T02:42:20;2.13;;;1.35;;
80159;SDS011;69486;59.082;37.928;2023-07-31T02:44:46;4.65;;;1.10;;
80159;SDS011;69486;59.082;37.928;2023-07-31T02:47:12;1.90;;;1.00;;
80159;SDS011;69486;59.082;37.928;2023-07-31T02:49:38;4.22;;;1.20;;
80159;SDS011;69486;59.082;37.928;2023-07-31T02:52:04;3.22;;;1.25;;
80159;SDS011;69486;59.082;37.928;2023-07-31T02:54:30;3.35;;;0.98;;
80159;SDS011;69486;59.082;37.928;2023-07-31T02:56:56;1.65;;;0.90;;
80159;SDS011;69486;59.082;37.928;2023-07-31T02:59:22;5.50;;;1.10;;
80159;SDS011;69486;59.082;37.928;2023-07-31T03:01:47;1.55;;;1.17;;
80159;SDS011;69486;59.082;37.928;2023-07-31T03:04:13;3.42;;;1.08;;
80159;SDS011;69486;59.082;37.928;2023-07-31T03:06:39;2.28;;;0.80;;
80159;SDS011;69486;59.082;37.928;2023-07-31T03:09:05;2.17;;;1.20;;
80159;SDS011;69486;59.082;37.928;2023-07-31T03:11:31;2.13;;;1.10;;
80159;SDS011;69486;59.082;37.928;2023-07-31T03:13:57;1.77;;;1.02;;
80159;SDS011;69486;59.082;37.928;2023-07-31T03:16:23;8.65;;;1.80;;
80159;SDS011;69486;59.082;37.928;2023-07-31T03:18:48;8.30;;;1.70;;
80159;SDS011;69486;59.082;37.928;2023-07-31T03:21:14;6.18;;;1.77;;
80159;SDS011;69486;59.082;37.928;2023-07-31T03:23:40;6.72;;;1.83;;
80159;SDS011;69486;59.082;37.928;2023-07-31T03:26:07;5.53;;;1.38;;
80159;SDS011;69486;59.082;37.928;2023-07-31T03:28:33;2.80;;;1.48;;
80159;SDS011;69486;59.082;37.928;2023-07-31T03:30:59;8.35;;;1.42;;
80159;SDS011;69486;59.082;37.928;2023-07-31T03:33:25;3.92;;;1.27;;
80159;SDS011;69486;59.082;37.928;2023-07-31T03:35:52;3.67;;;1.42;;
80159;SDS011;69486;59.082;37.928;2023-07-31T03:38:18;4.93;;;1.15;;
80159;SDS011;69486;59.082;37.928;2023-07-31T03:40:44;4.40;;;2.10;;
80159;SDS011;69486;59.082;37.928;2023-07-31T03:43:10;12.13;;;6.05;;
80159;SDS011;69486;59.082;37.928;2023-07-31T03:45:36;5.85;;;1.35;;
80159;SDS011;69486;59.082;37.928;2023-07-31T03:48:03;3.58;;;2.00;;
80159;SDS011;69486;59.082;37.928;2023-07-31T03:50:29;5.28;;;1.80;;
80159;SDS011;69486;59.082;37.928;2023-07-31T03:52:55;8.88;;;2.22;;
80159;SDS011;69486;59.082;37.928;2023-07-31T03:55:20;7.75;;;2.08;;
80159;SDS011;69486;59.082;37.928;2023-07-31T03:57:47;6.85;;;1.58;;
80159;SDS011;69486;59.082;37.928;2023-07-31T04:00:13;8.77;;;5.45;;
80159;SDS011;69486;59.082;37.928;2023-07-31T04:02:39;12.40;;;2.45;;
80159;SDS011;69486;59.082;37.928;2023-07-31T04:05:05;11.23;;;2.38;;
80159;SDS011;69486;59.082;37.928;2023-07-31T04:07:31;5.35;;;2.30;;
80159;SDS011;69486;59.082;37.928;2023-07-31T04:09:57;5.03;;;2.00;;
80159;SDS011;69486;59.082;37.928;2023-07-31T04:12:23;12.90;;;2.20;;
80159;SDS011;69486;59.082;37.928;2023-07-31T04:14:49;7.25;;;2.38;;
80159;SDS011;69486;59.082;37.928;2023-07-31T04:17:17;7.75;;;2.47;;
80159;SDS011;69486;59.082;37.928;2023-07-31T04:19:42;5.97;;;2.17;;
80159;SDS011;69486;59.082;37.928;2023-07-31T04:22:08;5.10;;;1.85;;
80159;SDS011;69486;59.082;37.928;2023-07-31T04:24:34;6.85;;;1.83;;
80159;SDS011;69486;59.082;37.928;2023-07-31T04:27:00;9.15;;;2.28;;
80159;SDS011;69486;59.082;37.928;2023-07-31T04:29:26;8.27;;;2.17;;
80159;SDS011;69486;59.082;37.928;2023-07-31T04:31:52;8.02;;;2.40;;
80159;SDS011;69486;59.082;37.928;2023-07-31T04:34:18;6.50;;;2.38;;
80159;SDS011;69486;59.082;37.928;2023-07-31T04:36:44;5.22;;;2.25;;
80159;SDS011;69486;59.082;37.928;2023-07-31T04:39:10;12.13;;;2.38;;
80159;SDS011;69486;59.082;37.928;2023-07-31T04:41:36;7.90;;;2.10;;
80159;SDS011;69486;59.082;37.928;2023-07-31T04:44:02;6.50;;;2.20;;
80159;SDS011;69486;59.082;37.928;2023-07-31T04:46:29;5.35;;;2.20;;
80159;SDS011;69486;59.082;37.928;2023-07-31T04:48:55;7.22;;;2.17;;
80159;SDS011;69486;59.082;37.928;2023-07-31T04:51:21;10.35;;;2.33;;
80159;SDS011;69486;59.082;37.928;2023-07-31T04:53:47;10.20;;;2.72;;
80159;SDS011;69486;59.082;37.928;2023-07-31T04:56:12;9.13;;;2.72;;
80159;SDS011;69486;59.082;37.928;2023-07-31T04:58:39;6.97;;;2.65;;
80159;SDS011;69486;59.082;37.928;2023-07-31T05:01:05;6.35;;;2.30;;
80159;SDS011;69486;59.082;37.928;2023-07-31T05:03:31;7.88;;;2.25;;
80159;SDS011;69486;59.082;37.928;2023-07-31T05:05:57;7.03;;;2.47;;
80159;SDS011;69486;59.082;37.928;2023-07-31T05:08:23;9.43;;;2.50;;
80159;SDS011;69486;59.082;37.928;2023-07-31T05:10:49;8.45;;;2.53;;
80159;SDS011;69486;59.082;37.928;2023-07-31T05:13:15;8.13;;;2.90;;
80159;SDS011;69486;59.082;37.928;2023-07-31T05:15:41;6.70;;;2.08;;
80159;SDS011;69486;59.082;37.928;2023-07-31T05:18:07;7.45;;;1.90;;
80159;SDS011;69486;59.082;37.928;2023-07-31T05:20:33;10.40;;;3.53;;
80159;SDS011;69486;59.082;37.928;2023-07-31T05:22:58;7.82;;;2.55;;
80159;SDS011;69486;59.082;37.928;2023-07-31T05:25:24;12.93;;;3.13;;
80159;SDS011;69486;59.082;37.928;2023-07-31T05:27:50;4.95;;;2.25;;
80159;SDS011;69486;59.082;37.928;2023-07-31T05:30:16;9.45;;;2.90;;
80159;SDS011;69486;59.082;37.928;2023-07-31T05:32:42;6.13;;;2.45;;
80159;SDS011;69486;59.082;37.928;2023-07-31T05:35:08;9.25;;;3.30;;
80159;SDS011;69486;59.082;37.928;2023-07-31T05:37:34;11.15;;;2.83;;
80159;SDS011;69486;59.082;37.928;2023-07-31T05:40:01;8.35;;;2.15;;
80159;SDS011;69486;59.082;37.928;2023-07-31T05:42:27;12.85;;;3.53;;
80159;SDS011;69486;59.082;37.928;2023-07-31T05:44:55;9.70;;;3.08;;
80159;SDS011;69486;59.082;37.928;2023-07-31T05:47:21;10.60;;;2.53;;
80159;SDS011;69486;59.082;37.928;2023-07-31T05:49:46;7.80;;;2.83;;
80159;SDS011;69486;59.082;37.928;2023-07-31T05:52:12;9.90;;;2.67;;
80159;SDS011;69486;59.082;37.928;2023-07-31T05:54:38;12.98;;;5.80;;
80159;SDS011;69486;59.082;37.928;2023-07-31T05:57:04;15.23;;;3.88;;
80159;SDS011;69486;59.082;37.928;2023-07-31T05:59:30;7.20;;;2.75;;
80159;SDS011;69486;59.082;37.928;2023-07-31T06:01:58;11.18;;;2.42;;
80159;SDS011;69486;59.082;37.928;2023-07-31T06:04:24;7.68;;;1.77;;
80159;SDS011;69486;59.082;37.928;2023-07-31T06:06:51;12.00;;;3.20;;
80159;SDS011;69486;59.082;37.928;2023-07-31T06:09:17;12.50;;;2.95;;
80159;SDS011;69486;59.082;37.928;2023-07-31T06:11:43;14.45;;;3.13;;
80159;SDS011;69486;59.082;37.928;2023-07-31T06:14:09;10.88;;;3.85;;
80159;SDS011;69486;59.082;37.928;2023-07-31T06:16:34;20.00;;;4.43;;
80159;SDS011;69486;59.082;37.928;2023-07-31T06:19:00;14.95;;;5.38;;
80159;SDS011;69486;59.082;37.928;2023-07-31T06:21:26;15.20;;;4.95;;
80159;SDS011;69486;59.082;37.928;2023-07-31T06:23:52;15.77;;;4.88;;
80159;SDS011;69486;59.082;37.928;2023-07-31T06:26:17;16.77;;;6.28;;
80159;SDS011;69486;59.082;37.928;2023-07-31T06:28:43;15.55;;;6.30;;
80159;SDS011;69486;59.082;37.928;2023-07-31T06:31:09;19.02;;;6.38;;
80159;SDS011;69486;59.082;37.928;2023-07-31T06:33:35;17.02;;;7.60;;
80159;SDS011;69486;59.082;37.928;2023-07-31T06:36:01;23.48;;;8.52;;
80159;SDS011;69486;59.082;37.928;2023-07-31T06:38:27;23.13;;;10.38;;
80159;SDS011;69486;59.082;37.928;2023-07-31T06:40:53;29.83;;;11.60;;
80159;SDS011;69486;59.082;37.928;2023-07-31T06:43:19;36.13;;;14.23;;
80159;SDS011;69486;59.082;37.928;2023-07-31T06:45:45;36.83;;;14.05;;
80159;SDS011;69486;59.082;37.928;2023-07-31T06:48:11;36.90;;;14.82;;
80159;SDS011;69486;59.082;37.928;2023-07-31T06:50:37;54.45;;;18.10;;
80159;SDS011;69486;59.082;37.928;2023-07-31T06:53:02;46.20;;;16.88;;
80159;SDS011;69486;59.082;37.928;2023-07-31T06:55:28;32.00;;;9.13;;
80159;SDS011;69486;59.082;37.928;2023-07-31T06:57:54;23.27;;;7.07;;
80159;SDS011;69486;59.082;37.928;2023-07-31T07:00:20;15.05;;;4.43;;
80159;SDS011;69486;59.082;37.928;2023-07-31T07:02:46;15.15;;;3.20;;
80159;SDS011;69486;59.082;37.928;2023-07-31T07:05:15;12.18;;;3.50;;
80159;SDS011;69486;59.082;37.928;2023-07-31T07:07:41;8.30;;;2.40;;
80159;SDS011;69486;59.082;37.928;2023-07-31T07:10:07;7.40;;;2.67;;
80159;SDS011;69486;59.082;37.928;2023-07-31T07:12:34;11.85;;;2.40;;
80159;SDS011;69486;59.082;37.928;2023-07-31T07:15:00;7.82;;;1.88;;
80159;SDS011;69486;59.082;37.928;2023-07-31T07:17:29;6.25;;;1.67;;
80159;SDS011;69486;59.082;37.928;2023-07-31T07:19:57;6.35;;;1.65;;
80159;SDS011;69486;59.082;37.928;2023-07-31T07:22:23;6.45;;;1.55;;
80159;SDS011;69486;59.082;37.928;2023-07-31T07:24:49;2.47;;;1.15;;
80159;SDS011;69486;59.082;37.928;2023-07-31T07:27:15;4.53;;;0.93;;
80159;SDS011;69486;59.082;37.928;2023-07-31T07:29:41;5.50;;;1.30;;
80159;SDS011;69486;59.082;37.928;2023-07-31T07:32:06;2.85;;;1.30;;
80159;SDS011;69486;59.082;37.928;2023-07-31T07:34:32;4.38;;;1.20;;
80159;SDS011;69486;59.082;37.928;2023-07-31T07:36:58;8.35;;;1.10;;
80159;SDS011;69486;59.082;37.928;2023-07-31T07:39:23;11.07;;;1.45;;
80159;SDS011;69486;59.082;37.928;2023-07-31T07:41:53;10.60;;;1.27;;
80159;SDS011;69486;59.082;37.928;2023-07-31T07:44:19;6.90;;;1.38;;
80159;SDS011;69486;59.082;37.928;2023-07-31T07:46:45;5.55;;;1.30;;
80159;SDS011;69486;59.082;37.928;2023-07-31T07:49:10;3.38;;;1.33;;
80159;SDS011;69486;59.082;37.928;2023-07-31T07:51:36;5.00;;;1.42;;
80159;SDS011;69486;59.082;37.928;2023-07-31T07:54:02;7.15;;;1.33;;
80159;SDS011;69486;59.082;37.928;2023-07-31T07:56:27;3.92;;;1.33;;
80159;SDS011;69486;59.082;37.928;2023-07-31T07:58:54;4.03;;;1.33;;
80159;SDS011;69486;59.082;37.928;2023-07-31T08:01:20;6.18;;;1.50;;
80159;SDS011;69486;59.082;37.928;2023-07-31T08:03:49;4.80;;;1.95;;
80159;SDS011;69486;59.082;37.928;2023-07-31T08:06:15;10.98;;;1.30;;
80159;SDS011;69486;59.082;37.928;2023-07-31T08:08:41;4.13;;;1.40;;
80159;SDS011;69486;59.082;37.928;2023-07-31T08:11:06;7.70;;;1.60;;
80159;SDS011;69486;59.082;37.928;2023-07-31T08:13:32;3.88;;;1.85;;
80159;SDS011;69486;59.082;37.928;2023-07-31T08:15:58;4.43;;;1.88;;
80159;SDS011;69486;59.082;37.928;2023-07-31T08:18:23;6.20;;;1.95;;
80159;SDS011;69486;59.082;37.928;2023-07-31T08:20:49;4.72;;;1.80;;
80159;SDS011;69486;59.082;37.928;2023-07-31T08:23:15;4.13;;;1.83;;
80159;SDS011;69486;59.082;37.928;2023-07-31T08:25:40;5.93;;;1.52;;
80159;SDS011;69486;59.082;37.928;2023-07-31T08:28:06;7.13;;;1.42;;
80159;SDS011;69486;59.082;37.928;2023-07-31T08:30:32;4.75;;;1.50;;
80159;SDS011;69486;59.082;37.928;2023-07-31T08:33:01;5.68;;;1.55;;
80159;SDS011;69486;59.082;37.928;2023-07-31T08:35:28;3.30;;;1.20;;
80159;SDS011;69486;59.082;37.928;2023-07-31T08:37:53;2.10;;;1.00;;
80159;SDS011;69486;59.082;37.928;2023-07-31T08:40:19;6.18;;;1.58;;
80159;SDS011;69486;59.082;37.928;2023-07-31T08:42:47;6.10;;;1.42;;
80159;SDS011;69486;59.082;37.928;2023-07-31T08:45:14;3.10;;;1.17;;
80159;SDS011;69486;59.082;37.928;2023-07-31T08:47:41;4.72;;;1.60;;
80159;SDS011;69486;59.082;37.928;2023-07-31T08:50:07;5.57;;;1.40;;
80159;SDS011;69486;59.082;37.928;2023-07-31T08:52:33;3.05;;;1.52;;
80159;SDS011;69486;59.082;37.928;2023-07-31T08:54:59;5.15;;;1.92;;
80159;SDS011;69486;59.082;37.928;2023-07-31T08:57:24;5.68;;;1.60;;
80159;SDS011;69486;59.082;37.928;2023-07-31T08:59:50;4.72;;;1.50;;
80159;SDS011;69486;59.082;37.928;2023-07-31T09:02:16;1.75;;;1.00;;
80159;SDS011;69486;59.082;37.928;2023-07-31T09:04:42;4.72;;;1.45;;
80159;SDS011;69486;59.082;37.928;2023-07-31T09:07:08;3.83;;;1.50;;
80159;SDS011;69486;59.082;37.928;2023-07-31T09:09:34;6.70;;;2.70;;
80159;SDS011;69486;59.082;37.928;2023-07-31T09:12:01;5.35;;;2.13;;
80159;SDS011;69486;59.082;37.928;2023-07-31T09:14:26;5.40;;;2.55;;
80159;SDS011;69486;59.082;37.928;2023-07-31T09:16:56;8.32;;;4.32;;
80159;SDS011;69486;59.082;37.928;2023-07-31T09:19:35;5.53;;;3.03;;
80159;SDS011;69486;59.082;37.928;2023-07-31T09:22:04;10.88;;;5.00;;
80159;SDS011;69486;59.082;37.928;2023-07-31T09:24:30;7.68;;;4.47;;
80159;SDS011;69486;59.082;37.928;2023-07-31T09:26:57;10.38;;;4.30;;
80159;SDS011;69486;59.082;37.928;2023-07-31T09:29:24;11.15;;;4.82;;
80159;SDS011;69486;59.082;37.928;2023-07-31T09:31:50;16.10;;;6.40;;
80159;SDS011;69486;59.082;37.928;2023-07-31T09:34:16;12.95;;;5.18;;
80159;SDS011;69486;59.082;37.928;2023-07-31T09:36:45;15.68;;;4.97;;
80159;SDS011;69486;59.082;37.928;2023-07-31T09:39:12;14.25;;;5.65;;
80159;SDS011;69486;59.082;37.928;2023-07-31T09:41:42;17.95;;;6.93;;
80159;SDS011;69486;59.082;37.928;2023-07-31T09:44:08;15.70;;;6.75;;
80159;SDS011;69486;59.082;37.928;2023-07-31T09:46:35;12.85;;;4.90;;
80159;SDS011;69486;59.082;37.928;2023-07-31T09:49:07;10.60;;;3.92;;
80159;SDS011;69486;59.082;37.928;2023-07-31T09:54:14;2.28;;;1.10;;
80159;SDS011;69486;59.082;37.928;2023-07-31T09:56:44;1.50;;;0.90;;
80159;SDS011;69486;59.082;37.928;2023-07-31T09:59:11;2.13;;;0.98;;
80159;SDS011;69486;59.082;37.928;2023-07-31T10:01:37;1.65;;;1.00;;
80159;SDS011;69486;59.082;37.928;2023-07-31T10:04:03;2.92;;;1.40;;
80159;SDS011;69486;59.082;37.928;2023-07-31T10:06:30;10.02;;;3.30;;
80159;SDS011;69486;59.082;37.928;2023-07-31T10:08:56;9.70;;;4.60;;
80159;SDS011;69486;59.082;37.928;2023-07-31T10:11:22;8.80;;;4.22;;
80159;SDS011;69486;59.082;37.928;2023-07-31T10:13:50;11.63;;;4.38;;
80159;SDS011;69486;59.082;37.928;2023-07-31T10:16:19;12.55;;;5.07;;
80159;SDS011;69486;59.082;37.928;2023-07-31T10:18:46;8.25;;;3.33;;
80159;SDS011;69486;59.082;37.928;2023-07-31T10:21:12;7.68;;;3.33;;
80159;SDS011;69486;59.082;37.928;2023-07-31T10:23:37;10.80;;;3.47;;
80159;SDS011;69486;59.082;37.928;2023-07-31T10:26:04;7.75;;;3.90;;
80159;SDS011;69486;59.082;37.928;2023-07-31T10:28:32;5.38;;;3.50;;
80159;SDS011;69486;59.082;37.928;2023-07-31T10:30:58;3.53;;;1.20;;
80159;SDS011;69486;59.082;37.928;2023-07-31T10:33:23;5.18;;;2.25;;
80159;SDS011;69486;59.082;37.928;2023-07-31T10:35:49;2.22;;;1.05;;
80159;SDS011;69486;59.082;37.928;2023-07-31T10:38:18;3.58;;;0.98;;
80159;SDS011;69486;59.082;37.928;2023-07-31T10:40:44;3.03;;;1.00;;
80159;SDS011;69486;59.082;37.928;2023-07-31T10:43:23;4.43;;;1.13;;
80159;SDS011;69486;59.082;37.928;2023-07-31T10:45:49;4.47;;;1.38;;
80159;SDS011;69486;59.082;37.928;2023-07-31T10:48:15;1.50;;;0.70;;
80159;SDS011;69486;59.082;37.928;2023-07-31T10:50:48;5.53;;;0.88;;
80159;SDS011;69486;59.082;37.928;2023-07-31T10:55:49;3.67;;;1.02;;
80159;SDS011;69486;59.082;37.928;2023-07-31T10:58:18;1.63;;;1.00;;
80159;SDS011;69486;59.082;37.928;2023-07-31T11:00:44;6.82;;;1.10;;
80159;SDS011;69486;59.082;37.928;2023-07-31T11:03:10;3.20;;;1.35;;
80159;SDS011;69486;59.082;37.928;2023-07-31T11:08:21;4.72;;;1.45;;
80159;SDS011;69486;59.082;37.928;2023-07-31T11:10:48;3.42;;;1.63;;
80159;SDS011;69486;59.082;37.928;2023-07-31T11:13:14;3.50;;;1.55;;
80159;SDS011;69486;59.082;37.928;2023-07-31T11:15:40;5.57;;;1.92;;
80159;SDS011;69486;59.082;37.928;2023-07-31T11:18:06;2.80;;;1.23;;
80159;SDS011;69486;59.082;37.928;2023-07-31T11:20:33;7.70;;;1.20;;
80159;SDS011;69486;59.082;37.928;2023-07-31T11:23:03;5.78;;;1.50;;
80159;SDS011;69486;59.082;37.928;2023-07-31T11:25:30;2.28;;;0.95;;
80159;SDS011;69486;59.082;37.928;2023-07-31T11:27:56;3.97;;;1.83;;
80159;SDS011;69486;59.082;37.928;2023-07-31T11:30:21;4.57;;;3.28;;
80159;SDS011;69486;59.082;37.928;2023-07-31T11:32:47;3.83;;;1.50;;
80159;SDS011;69486;59.082;37.928;2023-07-31T11:35:13;2.75;;;1.50;;
80159;SDS011;69486;59.082;37.928;2023-07-31T11:37:42;6.03;;;3.88;;
80159;SDS011;69486;59.082;37.928;2023-07-31T11:40:08;2.03;;;1.50;;
80159;SDS011;69486;59.082;37.928;2023-07-31T11:42:34;1.80;;;1.38;;
80159;SDS011;69486;59.082;37.928;2023-07-31T11:45:04;3.00;;;0.90;;
80159;SDS011;69486;59.082;37.928;2023-07-31T11:47:29;2.22;;;1.45;;
80159;SDS011;69486;59.082;37.928;2023-07-31T11:49:56;1.30;;;0.90;;
80159;SDS011;69486;59.082;37.928;2023-07-31T11:52:21;3.63;;;1.00;;
80159;SDS011;69486;59.082;37.928;2023-07-31T11:54:49;5.07;;;1.10;;
80159;SDS011;69486;59.082;37.928;2023-07-31T11:57:15;2.40;;;1.63;;
80159;SDS011;69486;59.082;37.928;2023-07-31T11:59:44;1.80;;;1.33;;
80159;SDS011;69486;59.082;37.928;2023-07-31T12:02:09;1.38;;;1.05;;
80159;SDS011;69486;59.082;37.928;2023-07-31T12:04:35;0.85;;;0.80;;
80159;SDS011;69486;59.082;37.928;2023-07-31T12:07:01;2.35;;;0.98;;
80159;SDS011;69486;59.082;37.928;2023-07-31T12:09:26;1.95;;;1.00;;
80159;SDS011;69486;59.082;37.928;2023-07-31T12:11:52;1.13;;;0.80;;
80159;SDS011;69486;59.082;37.928;2023-07-31T12:14:21;1.20;;;0.90;;
80159;SDS011;69486;59.082;37.928;2023-07-31T12:16:57;3.00;;;0.90;;
80159;SDS011;69486;59.082;37.928;2023-07-31T12:19:24;2.33;;;0.75;;
80159;SDS011;69486;59.082;37.928;2023-07-31T12:21:53;2.28;;;1.02;;
80159;SDS011;69486;59.082;37.928;2023-07-31T12:24:19;4.00;;;1.08;;
80159;SDS011;69486;59.082;37.928;2023-07-31T12:26:48;3.90;;;1.20;;
80159;SDS011;69486;59.082;37.928;2023-07-31T12:29:14;4.97;;;2.10;;
80159;SDS011;69486;59.082;37.928;2023-07-31T12:31:40;3.38;;;1.20;;
80159;SDS011;69486;59.082;37.928;2023-07-31T12:34:15;4.72;;;2.00;;
80159;SDS011;69486;59.082;37.928;2023-07-31T12:36:40;3.33;;;2.53;;
80159;SDS011;69486;59.082;37.928;2023-07-31T12:39:07;3.30;;;0.90;;
80159;SDS011;69486;59.082;37.928;2023-07-31T12:41:33;1.90;;;1.00;;
80159;SDS011;69486;59.082;37.928;2023-07-31T12:43:59;2.75;;;0.90;;
80159;SDS011;69486;59.082;37.928;2023-07-31T12:46:25;2.60;;;1.02;;
80159;SDS011;69486;59.082;37.928;2023-07-31T12:48:51;1.40;;;0.95;;
80159;SDS011;69486;59.082;37.928;2023-07-31T12:51:17;1.98;;;1.17;;
80159;SDS011;69486;59.082;37.928;2023-07-31T12:53:43;6.85;;;1.20;;
80159;SDS011;69486;59.082;37.928;2023-07-31T12:56:08;1.55;;;1.15;;
80159;SDS011;69486;59.082;37.928;2023-07-31T12:58:34;2.42;;;1.15;;
80159;SDS011;69486;59.082;37.928;2023-07-31T13:00:59;3.25;;;1.02;;
80159;SDS011;69486;59.082;37.928;2023-07-31T13:03:26;3.15;;;1.05;;
80159;SDS011;69486;59.082;37.928;2023-07-31T13:05:54;2.17;;;1.13;;
80159;SDS011;69486;59.082;37.928;2023-07-31T13:08:20;6.18;;;1.30;;
80159;SDS011;69486;59.082;37.928;2023-07-31T13:10:46;3.10;;;0.80;;
80159;SDS011;69486;59.082;37.928;2023-07-31T13:13:11;2.67;;;0.90;;
80159;SDS011;69486;59.082;37.928;2023-07-31T13:15:37;12.70;;;1.55;;
80159;SDS011;69486;59.082;37.928;2023-07-31T13:18:03;2.78;;;0.98;;
80159;SDS011;69486;59.082;37.928;2023-07-31T13:20:28;1.98;;;1.02;;
80159;SDS011;69486;59.082;37.928;2023-07-31T13:22:54;4.28;;;1.00;;
80159;SDS011;69486;59.082;37.928;2023-07-31T13:25:20;8.30;;;1.10;;
80159;SDS011;69486;59.082;37.928;2023-07-31T13:27:45;3.28;;;1.13;;
80159;SDS011;69486;59.082;37.928;2023-07-31T13:30:11;2.47;;;0.77;;
80159;SDS011;69486;59.082;37.928;2023-07-31T13:32:37;2.50;;;0.93;;
80159;SDS011;69486;59.082;37.928;2023-07-31T13:35:05;3.30;;;0.82;;
80159;SDS011;69486;59.082;37.928;2023-07-31T13:37:30;5.20;;;1.10;;
80159;SDS011;69486;59.082;37.928;2023-07-31T13:39:59;3.10;;;1.00;;
80159;SDS011;69486;59.082;37.928;2023-07-31T13:42:25;3.65;;;1.20;;
80159;SDS011;69486;59.082;37.928;2023-07-31T13:44:51;3.85;;;1.10;;
80159;SDS011;69486;59.082;37.928;2023-07-31T13:47:17;4.75;;;0.82;;
80159;SDS011;69486;59.082;37.928;2023-07-31T13:49:43;5.93;;;1.30;;
80159;SDS011;69486;59.082;37.928;2023-07-31T13:52:08;5.40;;;1.05;;
80159;SDS011;69486;59.082;37.928;2023-07-31T13:54:34;3.67;;;1.30;;
80159;SDS011;69486;59.082;37.928;2023-07-31T13:57:00;6.07;;;1.48;;
80159;SDS011;69486;59.082;37.928;2023-07-31T13:59:26;4.07;;;1.25;;
80159;SDS011;69486;59.082;37.928;2023-07-31T14:01:51;2.28;;;1.00;;
80159;SDS011;69486;59.082;37.928;2023-07-31T14:04:17;2.55;;;1.52;;
80159;SDS011;69486;59.082;37.928;2023-07-31T14:06:43;3.28;;;1.00;;
80159;SDS011;69486;59.082;37.928;2023-07-31T14:09:09;1.73;;;0.95;;
80159;SDS011;69486;59.082;37.928;2023-07-31T14:11:34;5.03;;;1.20;;
80159;SDS011;69486;59.082;37.928;2023-07-31T14:14:00;2.60;;;1.45;;
80159;SDS011;69486;59.082;37.928;2023-07-31T14:16:29;5.10;;;1.30;;
80159;SDS011;69486;59.082;37.928;2023-07-31T14:18:55;3.28;;;1.15;;
80159;SDS011;69486;59.082;37.928;2023-07-31T14:21:21;2.30;;;0.93;;
80159;SDS011;69486;59.082;37.928;2023-07-31T14:23:46;1.85;;;1.20;;
80159;SDS011;69486;59.082;37.928;2023-07-31T14:26:12;3.33;;;1.20;;
80159;SDS011;69486;59.082;37.928;2023-07-31T14:28:38;1.60;;;0.90;;
80159;SDS011;69486;59.082;37.928;2023-07-31T14:31:03;4.40;;;0.98;;
80159;SDS011;69486;59.082;37.928;2023-07-31T14:33:29;2.33;;;1.10;;
80159;SDS011;69486;59.082;37.928;2023-07-31T14:35:55;4.13;;;1.00;;
80159;SDS011;69486;59.082;37.928;2023-07-31T14:38:20;1.38;;;1.00;;